sensor_id;sensor_type;location;lat;lon;timestamp;pressure;altitude;pressure_sealevel;temperature;humidity
68301;BME280;55146;47.468;18.806;2022-09-20T00:00:44;99998.06;;;10.01;99.74
68301;BME280;55146;47.468;18.806;2022-09-20T00:03:11;100006.56;;;9.74;100.00
68301;BME280;55146;47.468;18.806;2022-09-20T00:05:38;100002.47;;;9.87;99.17
68301;BME280;55146;47.468;18.806;2022-09-20T00:08:06;100006.56;;;9.85;99.36
68301;BME280;55146;47.468;18.806;2022-09-20T00:10:33;100002.44;;;9.82;99.44
68301;BME280;55146;47.468;18.806;2022-09-20T00:13:01;99995.00;;;9.67;100.00
68301;BME280;55146;47.468;18.806;2022-09-20T00:15:26;99996.66;;;9.68;100.00
68301;BME280;55146;47.468;18.806;2022-09-20T00:17:51;99998.84;;;9.66;100.00
68301;BME280;55146;47.468;18.806;2022-09-20T00:20:17;99998.84;;;9.61;100.00
68301;BME280;55146;47.468;18.806;2022-09-20T00:22:43;100004.34;;;9.71;99.53
68301;BME280;55146;47.468;18.806;2022-09-20T00:25:08;100004.09;;;9.78;99.21
68301;BME280;55146;47.468;18.806;2022-09-20T00:27:33;100003.25;;;9.78;99.11
68301;BME280;55146;47.468;18.806;2022-09-20T00:30:00;100001.59;;;9.71;98.77
68301;BME280;55146;47.468;18.806;2022-09-20T00:32:25;100008.22;;;9.81;99.03
68301;BME280;55146;47.468;18.806;2022-09-20T00:34:50;100007.41;;;9.85;97.20
68301;BME280;55146;47.468;18.806;2022-09-20T00:37:36;100001.06;;;9.80;97.46
68301;BME280;55146;47.468;18.806;2022-09-20T00:40:04;100006.25;;;9.76;97.64
68301;BME280;55146;47.468;18.806;2022-09-20T00:42:30;100004.66;;;9.85;96.65
68301;BME280;55146;47.468;18.806;2022-09-20T00:49:55;100000.50;;;9.62;98.27
68301;BME280;55146;47.468;18.806;2022-09-20T00:52:22;100003.75;;;9.64;98.79
68301;BME280;55146;47.468;18.806;2022-09-20T00:54:48;100004.34;;;9.66;98.57
68301;BME280;55146;47.468;18.806;2022-09-20T00:57:14;100010.66;;;9.72;97.98
68301;BME280;55146;47.468;18.806;2022-09-20T00:59:42;100008.47;;;9.74;97.11
68301;BME280;55146;47.468;18.806;2022-09-20T01:02:14;100007.66;;;9.79;96.22
68301;BME280;55146;47.468;18.806;2022-09-20T01:04:41;100013.41;;;9.77;94.99
68301;BME280;55146;47.468;18.806;2022-09-20T01:07:08;100015.91;;;9.79;94.70
68301;BME280;55146;47.468;18.806;2022-09-20T01:09:35;100013.41;;;9.82;94.50
68301;BME280;55146;47.468;18.806;2022-09-20T01:12:04;100015.91;;;9.79;94.63
68301;BME280;55146;47.468;18.806;2022-09-20T01:14:30;100022.22;;;9.74;94.29
68301;BME280;55146;47.468;18.806;2022-09-20T01:16:58;100025.53;;;9.86;93.66
68301;BME280;55146;47.468;18.806;2022-09-20T01:19:46;100029.94;;;9.92;93.83
68301;BME280;55146;47.468;18.806;2022-09-20T01:22:31;100028.53;;;9.85;93.53
68301;BME280;55146;47.468;18.806;2022-09-20T01:25:08;100033.78;;;9.86;93.79
68301;BME280;55146;47.468;18.806;2022-09-20T01:30:09;100040.94;;;9.87;94.12
68301;BME280;55146;47.468;18.806;2022-09-20T01:35:24;100033.47;;;9.78;95.08
68301;BME280;55146;47.468;18.806;2022-09-20T01:41:08;100037.63;;;9.90;94.46
68301;BME280;55146;47.468;18.806;2022-09-20T01:43:47;100037.59;;;9.75;97.33
68301;BME280;55146;47.468;18.806;2022-09-20T01:46:23;100051.88;;;9.82;96.68
68301;BME280;55146;47.468;18.806;2022-09-20T01:49:00;100048.88;;;9.79;96.33
68301;BME280;55146;47.468;18.806;2022-09-20T02:00:14;100046.69;;;9.86;94.43
68301;BME280;55146;47.468;18.806;2022-09-20T02:09:19;100048.91;;;9.99;93.89
68301;BME280;55146;47.468;18.806;2022-09-20T02:21:04;100038.97;;;9.78;95.38
68301;BME280;55146;47.468;18.806;2022-09-20T02:23:52;100038.38;;;9.60;96.99
68301;BME280;55146;47.468;18.806;2022-09-20T02:26:40;100036.69;;;9.49;99.07
68301;BME280;55146;47.468;18.806;2022-09-20T02:29:31;100042.41;;;9.38;99.89
68301;BME280;55146;47.468;18.806;2022-09-20T02:32:05;100038.53;;;9.39;98.88
68301;BME280;55146;47.468;18.806;2022-09-20T02:34:48;100036.03;;;9.27;100.00
68301;BME280;55146;47.468;18.806;2022-09-20T02:42:42;100035.88;;;9.59;98.57
68301;BME280;55146;47.468;18.806;2022-09-20T02:45:22;100037.72;;;9.38;98.52
68301;BME280;55146;47.468;18.806;2022-09-20T02:47:52;100036.69;;;9.54;97.27
68301;BME280;55146;47.468;18.806;2022-09-20T02:56:03;100047.31;;;9.36;98.14
68301;BME280;55146;47.468;18.806;2022-09-20T03:04:19;100057.44;;;9.25;97.27
68301;BME280;55146;47.468;18.806;2022-09-20T03:07:00;100053.94;;;9.40;96.87
68301;BME280;55146;47.468;18.806;2022-09-20T03:12:46;100063.81;;;9.41;96.50
68301;BME280;55146;47.468;18.806;2022-09-20T03:16:08;100061.06;;;9.36;95.86
68301;BME280;55146;47.468;18.806;2022-09-20T03:35:13;100068.13;;;9.26;94.17
68301;BME280;55146;47.468;18.806;2022-09-20T03:38:04;100062.41;;;9.33;94.36
68301;BME280;55146;47.468;18.806;2022-09-20T03:51:28;100055.91;;;8.97;96.77
68301;BME280;55146;47.468;18.806;2022-09-20T03:54:28;100057.00;;;9.01;97.28
68301;BME280;55146;47.468;18.806;2022-09-20T04:13:54;100063.00;;;8.93;95.05
68301;BME280;55146;47.468;18.806;2022-09-20T04:16:43;100069.94;;;9.01;95.38
68301;BME280;55146;47.468;18.806;2022-09-20T04:21:55;100078.31;;;8.89;96.10
68301;BME280;55146;47.468;18.806;2022-09-20T04:27:17;100087.69;;;8.93;95.33
68301;BME280;55146;47.468;18.806;2022-09-20T04:30:00;100095.41;;;9.01;95.18
68301;BME280;55146;47.468;18.806;2022-09-20T04:32:59;100103.97;;;9.05;94.83
68301;BME280;55146;47.468;18.806;2022-09-20T04:35:51;100096.34;;;9.12;94.44
68301;BME280;55146;47.468;18.806;2022-09-20T04:38:36;100100.97;;;9.06;93.98
68301;BME280;55146;47.468;18.806;2022-09-20T04:46:48;100102.31;;;9.04;92.77
68301;BME280;55146;47.468;18.806;2022-09-20T04:52:42;100101.22;;;9.05;92.43
68301;BME280;55146;47.468;18.806;2022-09-20T05:18:41;100089.75;;;9.13;92.88
68301;BME280;55146;47.468;18.806;2022-09-20T05:32:23;100104.34;;;9.23;93.90
68301;BME280;55146;47.468;18.806;2022-09-20T05:35:25;100108.53;;;9.31;93.78
68301;BME280;55146;47.468;18.806;2022-09-20T05:43:32;100124.78;;;9.43;94.12
68301;BME280;55146;47.468;18.806;2022-09-20T05:49:38;100129.47;;;9.47;94.92
68301;BME280;55146;47.468;18.806;2022-09-20T05:57:57;100131.19;;;9.63;95.77
68301;BME280;55146;47.468;18.806;2022-09-20T06:00:56;100134.75;;;9.64;96.73
68301;BME280;55146;47.468;18.806;2022-09-20T06:03:40;100139.66;;;9.57;97.66
68301;BME280;55146;47.468;18.806;2022-09-20T06:16:56;100138.72;;;9.88;96.86
68301;BME280;55146;47.468;18.806;2022-09-20T06:22:16;100148.72;;;10.14;96.08
68301;BME280;55146;47.468;18.806;2022-09-20T06:24:48;100147.69;;;10.31;95.74
68301;BME280;55146;47.468;18.806;2022-09-20T06:27:23;100140.56;;;10.40;93.27
68301;BME280;55146;47.468;18.806;2022-09-20T06:29:57;100142.50;;;10.49;92.43
68301;BME280;55146;47.468;18.806;2022-09-20T06:32:24;100148.28;;;10.63;95.25
68301;BME280;55146;47.468;18.806;2022-09-20T06:34:52;100138.94;;;10.69;92.81
68301;BME280;55146;47.468;18.806;2022-09-20T06:40:22;100141.44;;;10.76;93.65
68301;BME280;55146;47.468;18.806;2022-09-20T06:43:09;100148.84;;;11.06;92.99
68301;BME280;55146;47.468;18.806;2022-09-20T06:45:39;100144.69;;;11.23;93.63
68301;BME280;55146;47.468;18.806;2022-09-20T06:48:05;100149.16;;;11.09;92.00
68301;BME280;55146;47.468;18.806;2022-09-20T06:50:33;100151.06;;;10.93;92.63
68301;BME280;55146;47.468;18.806;2022-09-20T06:53:00;100157.12;;;10.95;94.60
68301;BME280;55146;47.468;18.806;2022-09-20T06:55:29;100152.72;;;10.94;92.77
68301;BME280;55146;47.468;18.806;2022-09-20T06:57:56;100152.16;;;11.03;93.19
68301;BME280;55146;47.468;18.806;2022-09-20T07:00:21;100147.19;;;10.69;96.33
68301;BME280;55146;47.468;18.806;2022-09-20T07:02:47;100149.69;;;10.91;95.15
68301;BME280;55146;47.468;18.806;2022-09-20T07:05:17;100152.72;;;10.94;94.01
68301;BME280;55146;47.468;18.806;2022-09-20T07:07:46;100158.50;;;11.13;91.84
68301;BME280;55146;47.468;18.806;2022-09-20T07:10:12;100157.12;;;11.21;90.55
68301;BME280;55146;47.468;18.806;2022-09-20T07:12:38;100154.06;;;11.32;90.35
68301;BME280;55146;47.468;18.806;2022-09-20T07:15:04;100157.06;;;11.46;91.24
68301;BME280;55146;47.468;18.806;2022-09-20T07:17:30;100163.69;;;11.45;87.64
68301;BME280;55146;47.468;18.806;2022-09-20T07:19:55;100157.84;;;11.67;87.32
68301;BME280;55146;47.468;18.806;2022-09-20T07:22:21;100161.03;;;12.04;88.01
68301;BME280;55146;47.468;18.806;2022-09-20T07:24:46;100162.91;;;12.19;86.33
68301;BME280;55146;47.468;18.806;2022-09-20T07:27:12;100155.53;;;12.09;85.34
68301;BME280;55146;47.468;18.806;2022-09-20T07:29:37;100161.06;;;11.99;86.96
68301;BME280;55146;47.468;18.806;2022-09-20T07:32:05;100158.94;;;12.35;86.62
68301;BME280;55146;47.468;18.806;2022-09-20T07:34:30;100159.44;;;12.86;84.49
68301;BME280;55146;47.468;18.806;2022-09-20T07:36:56;100166.16;;;13.09;84.91
68301;BME280;55146;47.468;18.806;2022-09-20T07:39:24;100160.75;;;13.33;83.73
68301;BME280;55146;47.468;18.806;2022-09-20T07:41:49;100167.50;;;13.46;80.79
68301;BME280;55146;47.468;18.806;2022-09-20T07:44:16;100167.56;;;13.64;81.88
68301;BME280;55146;47.468;18.806;2022-09-20T07:46:56;100168.06;;;13.71;81.64
68301;BME280;55146;47.468;18.806;2022-09-20T07:49:26;100177.34;;;13.57;79.81
68301;BME280;55146;47.468;18.806;2022-09-20T07:51:54;100171.91;;;13.75;80.31
68301;BME280;55146;47.468;18.806;2022-09-20T07:54:20;100172.53;;;14.15;81.10
68301;BME280;55146;47.468;18.806;2022-09-20T07:56:46;100171.28;;;14.50;76.42
68301;BME280;55146;47.468;18.806;2022-09-20T07:59:12;100175.44;;;14.47;74.27
68301;BME280;55146;47.468;18.806;2022-09-20T08:01:38;100170.94;;;14.09;77.92
68301;BME280;55146;47.468;18.806;2022-09-20T08:04:05;100169.19;;;14.37;74.84
68301;BME280;55146;47.468;18.806;2022-09-20T08:06:32;100173.34;;;14.77;77.30
68301;BME280;55146;47.468;18.806;2022-09-20T08:08:59;100168.25;;;14.04;75.11
68301;BME280;55146;47.468;18.806;2022-09-20T08:11:25;100170.94;;;14.09;76.01
68301;BME280;55146;47.468;18.806;2022-09-20T08:13:53;100173.44;;;14.53;74.29
68301;BME280;55146;47.468;18.806;2022-09-20T08:16:19;100177.47;;;14.98;75.31
68301;BME280;55146;47.468;18.806;2022-09-20T08:18:50;100173.59;;;15.13;69.98
68301;BME280;55146;47.468;18.806;2022-09-20T08:21:17;100168.84;;;15.32;71.47
68301;BME280;55146;47.468;18.806;2022-09-20T08:23:44;100171.72;;;15.87;73.27
68301;BME280;55146;47.468;18.806;2022-09-20T08:26:14;100177.69;;;15.34;68.93
68301;BME280;55146;47.468;18.806;2022-09-20T08:28:42;100173.69;;;15.40;68.98
68301;BME280;55146;47.468;18.806;2022-09-20T08:31:12;100169.56;;;15.24;72.98
68301;BME280;55146;47.468;18.806;2022-09-20T08:33:38;100161.63;;;15.63;68.14
68301;BME280;55146;47.468;18.806;2022-09-20T08:36:05;100159.81;;;16.13;71.07
68301;BME280;55146;47.468;18.806;2022-09-20T08:38:31;100167.47;;;16.30;67.36
68301;BME280;55146;47.468;18.806;2022-09-20T08:41:01;100168.75;;;15.83;70.42
68301;BME280;55146;47.468;18.806;2022-09-20T08:43:32;100173.84;;;15.62;68.88
68301;BME280;55146;47.468;18.806;2022-09-20T08:46:01;100175.47;;;15.17;71.09
68301;BME280;55146;47.468;18.806;2022-09-20T08:48:29;100168.47;;;14.87;72.64
68301;BME280;55146;47.468;18.806;2022-09-20T08:51:00;100181.72;;;14.53;73.02
68301;BME280;55146;47.468;18.806;2022-09-20T08:53:27;100180.09;;;14.52;71.98
68301;BME280;55146;47.468;18.806;2022-09-20T08:55:54;100180.53;;;14.16;72.47
68301;BME280;55146;47.468;18.806;2022-09-20T08:58:22;100176.47;;;14.09;74.18
68301;BME280;55146;47.468;18.806;2022-09-20T09:00:48;100177.19;;;13.72;75.97
68301;BME280;55146;47.468;18.806;2022-09-20T09:03:15;100178.97;;;13.58;75.22
68301;BME280;55146;47.468;18.806;2022-09-20T09:05:46;100173.38;;;13.68;75.57
68301;BME280;55146;47.468;18.806;2022-09-20T09:08:18;100176.00;;;13.78;74.39
68301;BME280;55146;47.468;18.806;2022-09-20T09:10:47;100182.00;;;13.85;74.46
68301;BME280;55146;47.468;18.806;2022-09-20T09:16:00;100177.88;;;13.83;76.88
68301;BME280;55146;47.468;18.806;2022-09-20T09:18:37;100180.28;;;13.89;75.10
68301;BME280;55146;47.468;18.806;2022-09-20T09:21:05;100175.47;;;14.24;75.55
68301;BME280;55146;47.468;18.806;2022-09-20T09:23:50;100176.09;;;14.39;75.45
68301;BME280;55146;47.468;18.806;2022-09-20T09:26:19;100183.13;;;14.32;71.42
68301;BME280;55146;47.468;18.806;2022-09-20T09:28:46;100179.00;;;14.05;73.31
68301;BME280;55146;47.468;18.806;2022-09-20T09:31:23;100174.00;;;14.07;73.26
68301;BME280;55146;47.468;18.806;2022-09-20T09:33:50;100184.16;;;13.93;72.30
68301;BME280;55146;47.468;18.806;2022-09-20T09:36:20;100179.50;;;14.12;73.32
68301;BME280;55146;47.468;18.806;2022-09-20T09:38:46;100168.28;;;14.23;72.40
68301;BME280;55146;47.468;18.806;2022-09-20T09:41:28;100170.44;;;14.87;73.26
68301;BME280;55146;47.468;18.806;2022-09-20T09:44:02;100173.44;;;15.23;68.61
68301;BME280;55146;47.468;18.806;2022-09-20T09:46:32;100176.16;;;15.09;69.48
68301;BME280;55146;47.468;18.806;2022-09-20T09:49:13;100173.50;;;14.48;70.09
68301;BME280;55146;47.468;18.806;2022-09-20T09:51:40;100176.34;;;14.99;66.47
68301;BME280;55146;47.468;18.806;2022-09-20T09:54:13;100168.63;;;14.77;67.16
68301;BME280;55146;47.468;18.806;2022-09-20T10:00:15;100160.47;;;14.86;69.19
68301;BME280;55146;47.468;18.806;2022-09-20T10:05:29;100147.91;;;16.63;66.51
68301;BME280;55146;47.468;18.806;2022-09-20T10:13:27;100141.94;;;16.91;64.75
68301;BME280;55146;47.468;18.806;2022-09-20T10:21:48;100149.13;;;15.66;66.33
68301;BME280;55146;47.468;18.806;2022-09-20T10:29:41;100154.19;;;17.35;63.17
68301;BME280;55146;47.468;18.806;2022-09-20T10:35:35;100158.78;;;15.96;65.24
68301;BME280;55146;47.468;18.806;2022-09-20T10:38:29;100157.97;;;15.03;68.81
68301;BME280;55146;47.468;18.806;2022-09-20T10:41:36;100153.59;;;14.65;71.01
68301;BME280;55146;47.468;18.806;2022-09-20T10:57:46;100157.97;;;15.03;72.18
68301;BME280;55146;47.468;18.806;2022-09-20T11:00:21;100157.50;;;15.15;70.89
68301;BME280;55146;47.468;18.806;2022-09-20T11:05:37;100151.38;;;15.31;68.97
68301;BME280;55146;47.468;18.806;2022-09-20T11:08:14;100150.34;;;15.27;68.95
68301;BME280;55146;47.468;18.806;2022-09-20T11:10:49;100147.34;;;15.56;70.44
68301;BME280;55146;47.468;18.806;2022-09-20T11:16:26;100153.06;;;15.46;69.94
68301;BME280;55146;47.468;18.806;2022-09-20T11:21:39;100142.13;;;15.96;65.82
68301;BME280;55146;47.468;18.806;2022-09-20T11:24:21;100134.00;;;15.99;63.70
68301;BME280;55146;47.468;18.806;2022-09-20T11:26:55;100140.91;;;15.74;68.02
68301;BME280;55146;47.468;18.806;2022-09-20T11:29:43;100135.41;;;16.38;65.15
68301;BME280;55146;47.468;18.806;2022-09-20T11:34:58;100133.78;;;16.73;63.33
68301;BME280;55146;47.468;18.806;2022-09-20T11:37:30;100134.63;;;16.95;65.36
68301;BME280;55146;47.468;18.806;2022-09-20T11:40:00;100128.28;;;16.45;64.26
68301;BME280;55146;47.468;18.806;2022-09-20T11:42:29;100133.47;;;16.11;68.96
68301;BME280;55146;47.468;18.806;2022-09-20T11:44:57;100143.44;;;15.57;69.96
68301;BME280;55146;47.468;18.806;2022-09-20T11:47:26;100143.91;;;15.46;69.49
68301;BME280;55146;47.468;18.806;2022-09-20T11:55:32;100137.47;;;15.04;72.30
68301;BME280;55146;47.468;18.806;2022-09-20T11:58:04;100136.88;;;15.81;68.94
68301;BME280;55146;47.468;18.806;2022-09-20T12:00:34;100120.19;;;16.35;67.45
68301;BME280;55146;47.468;18.806;2022-09-20T12:03:03;100126.19;;;16.29;63.95
68301;BME280;55146;47.468;18.806;2022-09-20T12:05:38;100126.19;;;16.01;63.61
68301;BME280;55146;47.468;18.806;2022-09-20T12:08:07;100123.50;;;16.24;64.83
68301;BME280;55146;47.468;18.806;2022-09-20T12:10:42;100132.06;;;16.13;63.28
68301;BME280;55146;47.468;18.806;2022-09-20T12:13:21;100119.03;;;15.73;65.81
68301;BME280;55146;47.468;18.806;2022-09-20T12:15:58;100111.28;;;16.61;65.11
68301;BME280;55146;47.468;18.806;2022-09-20T12:21:04;100107.38;;;16.62;63.65
68301;BME280;55146;47.468;18.806;2022-09-20T12:26:04;100118.31;;;17.25;60.66
68301;BME280;55146;47.468;18.806;2022-09-20T12:28:35;100099.44;;;16.69;61.69
68301;BME280;55146;47.468;18.806;2022-09-20T12:41:49;100116.25;;;15.59;62.19
68301;BME280;55146;47.468;18.806;2022-09-20T12:46:56;100130.62;;;15.15;64.64
68301;BME280;55146;47.468;18.806;2022-09-20T13:01:25;100128.22;;;15.41;69.73
68301;BME280;55146;47.468;18.806;2022-09-20T13:03:43;100132.94;;;15.08;71.10
68301;BME280;55146;47.468;18.806;2022-09-20T13:09:03;100119.63;;;15.10;73.84
68301;BME280;55146;47.468;18.806;2022-09-20T13:11:53;100117.59;;;14.46;76.08
68301;BME280;55146;47.468;18.806;2022-09-20T13:14:29;100115.91;;;14.69;76.38
68301;BME280;55146;47.468;18.806;2022-09-20T13:16:58;100117.78;;;14.54;77.73
68301;BME280;55146;47.468;18.806;2022-09-20T13:19:29;100111.16;;;14.69;76.99
68301;BME280;55146;47.468;18.806;2022-09-20T13:24:32;100119.06;;;15.41;76.68
68301;BME280;55146;47.468;18.806;2022-09-20T13:27:05;100106.38;;;15.53;74.82
68301;BME280;55146;47.468;18.806;2022-09-20T13:29:34;100108.91;;;15.50;73.57
68301;BME280;55146;47.468;18.806;2022-09-20T13:34:43;100098.50;;;16.24;71.81
68301;BME280;55146;47.468;18.806;2022-09-20T13:37:17;100095.56;;;15.93;71.94
68301;BME280;55146;47.468;18.806;2022-09-20T13:39:53;100096.28;;;15.30;70.52
68301;BME280;55146;47.468;18.806;2022-09-20T13:42:19;100108.31;;;14.74;74.52
68301;BME280;55146;47.468;18.806;2022-09-20T13:44:46;100098.81;;;14.80;74.19
68301;BME280;55146;47.468;18.806;2022-09-20T13:47:30;100096.38;;;14.60;72.16
68301;BME280;55146;47.468;18.806;2022-09-20T13:52:44;100091.13;;;14.40;71.16
68301;BME280;55146;47.468;18.806;2022-09-20T13:57:46;100094.59;;;14.08;75.49
68301;BME280;55146;47.468;18.806;2022-09-20T14:00:13;100093.03;;;14.21;77.09
68301;BME280;55146;47.468;18.806;2022-09-20T14:02:40;100090.81;;;14.23;74.34
68301;BME280;55146;47.468;18.806;2022-09-20T14:05:06;100089.19;;;14.91;74.88
68301;BME280;55146;47.468;18.806;2022-09-20T14:07:32;100093.91;;;15.37;71.76
68301;BME280;55146;47.468;18.806;2022-09-20T14:09:58;100081.00;;;15.87;69.76
68301;BME280;55146;47.468;18.806;2022-09-20T14:12:25;100088.28;;;15.97;71.01
68301;BME280;55146;47.468;18.806;2022-09-20T14:14:51;100086.78;;;16.27;68.08
68301;BME280;55146;47.468;18.806;2022-09-20T14:17:19;100089.19;;;16.42;64.82
68301;BME280;55146;47.468;18.806;2022-09-20T14:19:47;100086.91;;;16.57;65.86
68301;BME280;55146;47.468;18.806;2022-09-20T14:22:32;100085.97;;;16.62;64.16
68301;BME280;55146;47.468;18.806;2022-09-20T14:25:00;100079.62;;;16.48;66.60
68301;BME280;55146;47.468;18.806;2022-09-20T14:27:27;100079.88;;;16.38;67.55
68301;BME280;55146;47.468;18.806;2022-09-20T14:29:55;100090.94;;;16.15;67.43
68301;BME280;55146;47.468;18.806;2022-09-20T14:32:27;100097.16;;;15.85;66.39
68301;BME280;55146;47.468;18.806;2022-09-20T14:37:25;100099.94;;;15.25;65.57
68301;BME280;55146;47.468;18.806;2022-09-20T14:39:54;100099.78;;;15.03;68.38
68301;BME280;55146;47.468;18.806;2022-09-20T14:42:28;100100.72;;;14.98;69.31
68301;BME280;55146;47.468;18.806;2022-09-20T14:44:55;100103.66;;;14.70;69.52
68301;BME280;55146;47.468;18.806;2022-09-20T14:47:28;100094.25;;;14.71;66.28
68301;BME280;55146;47.468;18.806;2022-09-20T14:50:00;100104.06;;;14.44;67.21
68301;BME280;55146;47.468;18.806;2022-09-20T14:55:15;100107.84;;;14.11;68.99
68301;BME280;55146;47.468;18.806;2022-09-20T14:57:41;100108.59;;;14.16;70.92
68301;BME280;55146;47.468;18.806;2022-09-20T15:00:09;100104.16;;;13.97;70.37
68301;BME280;55146;47.468;18.806;2022-09-20T15:02:36;100115.47;;;13.76;72.02
68301;BME280;55146;47.468;18.806;2022-09-20T15:05:01;100113.94;;;13.89;71.08
68301;BME280;55146;47.468;18.806;2022-09-20T15:07:27;100121.72;;;13.63;72.36
68301;BME280;55146;47.468;18.806;2022-09-20T15:09:53;100126.53;;;13.53;73.68
68301;BME280;55146;47.468;18.806;2022-09-20T15:12:19;100130.25;;;13.67;73.08
68301;BME280;55146;47.468;18.806;2022-09-20T15:14:46;100134.81;;;13.53;72.20
68301;BME280;55146;47.468;18.806;2022-09-20T15:17:17;100137.28;;;13.30;72.93
68301;BME280;55146;47.468;18.806;2022-09-20T15:19:43;100149.69;;;13.33;71.71
68301;BME280;55146;47.468;18.806;2022-09-20T15:22:09;100155.13;;;13.14;73.22
68301;BME280;55146;47.468;18.806;2022-09-20T15:24:34;100164.84;;;13.02;71.94
68301;BME280;55146;47.468;18.806;2022-09-20T15:27:00;100166.34;;;12.84;73.13
68301;BME280;55146;47.468;18.806;2022-09-20T15:29:25;100168.28;;;12.88;73.68
68301;BME280;55146;47.468;18.806;2022-09-20T15:31:51;100174.84;;;12.92;73.21
68301;BME280;55146;47.468;18.806;2022-09-20T15:34:17;100173.28;;;12.81;73.99
68301;BME280;55146;47.468;18.806;2022-09-20T15:36:42;100176.84;;;12.87;73.99
68301;BME280;55146;47.468;18.806;2022-09-20T15:39:08;100178.84;;;12.76;75.17
68301;BME280;55146;47.468;18.806;2022-09-20T15:41:34;100174.78;;;12.64;76.35
68301;BME280;55146;47.468;18.806;2022-09-20T15:44:01;100172.69;;;12.45;76.67
68301;BME280;55146;47.468;18.806;2022-09-20T15:46:27;100179.09;;;12.36;77.76
68301;BME280;55146;47.468;18.806;2022-09-20T15:48:53;100184.22;;;12.57;78.04
68301;BME280;55146;47.468;18.806;2022-09-20T15:51:19;100186.97;;;12.57;78.19
68301;BME280;55146;47.468;18.806;2022-09-20T15:56:35;100187.50;;;12.65;79.02
68301;BME280;55146;47.468;18.806;2022-09-20T15:59:02;100184.38;;;12.76;78.76
68301;BME280;55146;47.468;18.806;2022-09-20T16:04:13;100181.81;;;12.41;80.09
68301;BME280;55146;47.468;18.806;2022-09-20T16:06:41;100192.28;;;12.44;81.53
68301;BME280;55146;47.468;18.806;2022-09-20T16:09:06;100193.59;;;12.56;80.84
68301;BME280;55146;47.468;18.806;2022-09-20T16:11:32;100188.16;;;12.46;80.41
68301;BME280;55146;47.468;18.806;2022-09-20T16:13:59;100187.84;;;12.48;81.54
68301;BME280;55146;47.468;18.806;2022-09-20T16:16:26;100187.44;;;12.26;81.61
68301;BME280;55146;47.468;18.806;2022-09-20T16:18:52;100182.38;;;12.43;80.99
68301;BME280;55146;47.468;18.806;2022-09-20T16:21:37;100182.84;;;12.55;80.46
68301;BME280;55146;47.468;18.806;2022-09-20T16:24:04;100183.91;;;12.59;79.89
68301;BME280;55146;47.468;18.806;2022-09-20T16:26:30;100178.06;;;12.66;79.53
68301;BME280;55146;47.468;18.806;2022-09-20T16:28:56;100179.44;;;12.68;79.17
68301;BME280;55146;47.468;18.806;2022-09-20T16:33:54;100186.66;;;12.64;79.38
68301;BME280;55146;47.468;18.806;2022-09-20T16:36:19;100186.94;;;12.63;78.86
68301;BME280;55146;47.468;18.806;2022-09-20T16:38:48;100190.72;;;12.72;79.81
68301;BME280;55146;47.468;18.806;2022-09-20T16:41:13;100184.72;;;12.65;79.69
68301;BME280;55146;47.468;18.806;2022-09-20T16:43:39;100189.13;;;12.66;80.05
68301;BME280;55146;47.468;18.806;2022-09-20T16:46:05;100186.03;;;12.72;79.85
68301;BME280;55146;47.468;18.806;2022-09-20T16:48:31;100189.13;;;12.66;79.98
68301;BME280;55146;47.468;18.806;2022-09-20T16:50:57;100186.06;;;12.67;79.89
68301;BME280;55146;47.468;18.806;2022-09-20T16:53:24;100193.56;;;12.62;79.89
68301;BME280;55146;47.468;18.806;2022-09-20T16:55:50;100194.34;;;12.67;79.97
68301;BME280;55146;47.468;18.806;2022-09-20T16:58:16;100195.72;;;12.70;79.89
68301;BME280;55146;47.468;18.806;2022-09-20T17:00:41;100186.97;;;12.57;79.80
68301;BME280;55146;47.468;18.806;2022-09-20T17:03:07;100193.31;;;12.53;80.24
68301;BME280;55146;47.468;18.806;2022-09-20T17:05:32;100196.31;;;12.62;80.36
68301;BME280;55146;47.468;18.806;2022-09-20T17:07:57;100199.41;;;12.55;80.64
68301;BME280;55146;47.468;18.806;2022-09-20T17:10:24;100200.00;;;12.47;80.63
68301;BME280;55146;47.468;18.806;2022-09-20T17:12:53;100190.09;;;12.46;80.77
68301;BME280;55146;47.468;18.806;2022-09-20T17:18:07;100198.44;;;12.31;82.02
68301;BME280;55146;47.468;18.806;2022-09-20T17:20:33;100194.91;;;12.20;82.77
68301;BME280;55146;47.468;18.806;2022-09-20T17:22:58;100198.50;;;12.15;83.07
68301;BME280;55146;47.468;18.806;2022-09-20T17:25:24;100207.06;;;12.04;83.41
68301;BME280;55146;47.468;18.806;2022-09-20T17:27:50;100207.41;;;11.87;84.36
68301;BME280;55146;47.468;18.806;2022-09-20T17:30:16;100211.28;;;11.81;84.70
68301;BME280;55146;47.468;18.806;2022-09-20T17:32:41;100209.91;;;11.84;85.51
68301;BME280;55146;47.468;18.806;2022-09-20T17:35:12;100217.31;;;11.93;85.08
68301;BME280;55146;47.468;18.806;2022-09-20T17:37:37;100225.31;;;11.95;84.89
68301;BME280;55146;47.468;18.806;2022-09-20T17:40:03;100222.53;;;12.00;84.77
68301;BME280;55146;47.468;18.806;2022-09-20T17:42:28;100218.94;;;12.09;84.36
68301;BME280;55146;47.468;18.806;2022-09-20T17:44:55;100224.44;;;12.04;84.58
68301;BME280;55146;47.468;18.806;2022-09-20T17:47:20;100227.75;;;12.06;84.35
68301;BME280;55146;47.468;18.806;2022-09-20T17:49:46;100234.44;;;11.80;84.87
68301;BME280;55146;47.468;18.806;2022-09-20T17:52:11;100233.87;;;11.88;85.43
68301;BME280;55146;47.468;18.806;2022-09-20T17:54:37;100236.91;;;11.97;85.20
68301;BME280;55146;47.468;18.806;2022-09-20T17:57:02;100238.56;;;11.93;85.41
68301;BME280;55146;47.468;18.806;2022-09-20T17:59:29;100245.16;;;11.92;85.03
68301;BME280;55146;47.468;18.806;2022-09-20T18:01:55;100239.94;;;11.85;85.38